Kenneth Carl — WDF8246 — position and weather

sailwx.info

Track history (hours):
 
Tides and Currents Weather Stations Pressure Air Temp Water Temp Dewpoint Dewpoint Depression Visibility Wind Speed Wind Dir Waves Ship Positions

Kenneth Carl

Owner: So. Cal. Ship Services, Inc., San Pedro, CA. More information available from US FCC via Universal Licensing System and Coast Guard Vessel Documentation Center.

Last reported at 2015-Aug-28 23:32 UTC. Time now 2015-Aug-29 00:22 UTC.
Position N 33°43' W 118°16'.

Length 31 m; draft 3 m.

Type: Ship. MMSI: 367492920.

Date/timePositionNaut miles runAvg speedWind from/ knotsBaromVisibWave heightAir tempDewpointWater temp
2015-Aug-28 23:32N 33°43' W 118°16'10 9.8
2015-Aug-28 22:29N 33°35' W 118°08'2 1.8
2015-Aug-28 21:33N 33°34' W 118°07'1 0.9
2015-Aug-28 20:33N 33°35' W 118°08'1 0.9
2015-Aug-28 19:30N 33°34' W 118°07'1 1.3
2015-Aug-28 18:30N 33°35' W 118°08'1 1.3
2015-Aug-28 17:33N 33°34' W 118°07'1 1.3
2015-Aug-28 16:33N 33°35' W 118°08'1 0.9
2015-Aug-28 15:10N 33°34' W 118°07'2 3.5
2015-Aug-28 14:28N 33°36' W 118°08'8 9.2
2015-Aug-28 13:33N 33°42' W 118°15'2 0.4
2015-Aug-28 08:12N 33°44' W 118°16'0 0.0
2015-Aug-28 07:15N 33°44' W 118°16'0 0.0
2015-Aug-28 04:30N 33°44' W 118°16'0 0.0
2015-Aug-28 03:15N 33°44' W 118°16'0 0.0
2015-Aug-28 01:24N 33°44' W 118°16'0 0.0
2015-Aug-28 00:18N 33°44' W 118°16'0 0.0
2015-Aug-27 23:33N 33°44' W 118°16'3 2.9
2015-Aug-27 22:33N 33°42' W 118°14'9 8.7
2015-Aug-27 21:33N 33°35' W 118°08'0 0.1
2015-Aug-27 20:33N 33°35' W 118°08'0 0.0
2015-Aug-27 19:33N 33°35' W 118°08'0 0.0
2015-Aug-27 18:33N 33°35' W 118°08'0 0.0
2015-Aug-27 17:33N 33°35' W 118°08'0 0.1
2015-Aug-27 16:33N 33°35' W 118°08'1 1.2
2015-Aug-27 15:33N 33°34' W 118°07'9 8.8
2015-Aug-27 14:33N 33°41' W 118°13'4 3.9
2015-Aug-27 13:32N 33°44' W 118°16'0 0.0
2015-Aug-27 12:31N 33°44' W 118°16'0 0.0
2015-Aug-27 11:33N 33°44' W 118°16'0 0.0
2015-Aug-27 10:33N 33°44' W 118°16'0 0.0
2015-Aug-27 09:33N 33°44' W 118°16'0 0.0
2015-Aug-27 08:33N 33°44' W 118°16'0 0.0
2015-Aug-27 07:33N 33°44' W 118°16'0 0.0
2015-Aug-27 06:33N 33°44' W 118°16'0 0.0
2015-Aug-27 05:33N 33°44' W 118°16'0 0.0
2015-Aug-27 04:33N 33°44' W 118°16'0 0.0
2015-Aug-27 03:25N 33°44' W 118°16'0 0.0
2015-Aug-27 02:33N 33°44' W 118°16'0 0.0
2015-Aug-27 01:28N 33°44' W 118°16'0 0.0
2015-Aug-27 00:33N 33°44' W 118°16'2 2.1
2015-Aug-26 23:33N 33°42' W 118°15'9 9.5
2015-Aug-26 22:33N 33°35' W 118°08'0 0.1
2015-Aug-26 21:33N 33°35' W 118°08'0 0.0
2015-Aug-26 20:33N 33°35' W 118°08'0 0.0
2015-Aug-26 19:33N 33°35' W 118°08'0 0.0
2015-Aug-26 18:33N 33°35' W 118°08'0 0.0
2015-Aug-26 17:33N 33°35' W 118°08'0 0.0
2015-Aug-26 16:33N 33°35' W 118°08'1 1.3
2015-Aug-26 15:33N 33°34' W 118°07'7 6.6
2015-Aug-26 14:33N 33°39' W 118°12'6 6.2
2015-Aug-26 13:33N 33°44' W 118°16'0 0.0
2015-Aug-26 12:33N 33°44' W 118°16'0 0.0
2015-Aug-26 11:33N 33°44' W 118°16'0 0.0
2015-Aug-26 10:33N 33°44' W 118°16'0 0.0
2015-Aug-26 09:33N 33°44' W 118°16'0 0.0
2015-Aug-26 08:33N 33°44' W 118°16'0 0.0
2015-Aug-26 07:33N 33°44' W 118°16'0 0.0
2015-Aug-26 06:33N 33°44' W 118°16'0 0.0
2015-Aug-26 05:30N 33°44' W 118°16'0 0.0
2015-Aug-26 04:32N 33°44' W 118°16'0 0.0
2015-Aug-26 03:33N 33°44' W 118°16'0 0.0
2015-Aug-26 02:33N 33°44' W 118°16'0 0.0
2015-Aug-26 01:33N 33°44' W 118°16'0 0.0
2015-Aug-26 00:33N 33°44' W 118°16'0 0.0
2015-Aug-25 23:33N 33°44' W 118°16'0 0.0
2015-Aug-25 22:33N 33°44' W 118°16'0 0.4
2015-Aug-25 21:33N 33°44' W 118°16'0 0.0
2015-Aug-25 20:33N 33°44' W 118°16'11 7.3
2015-Aug-25 19:06N 33°36' W 118°08'1 1.4
2015-Aug-25 18:33N 33°35' W 118°08'1 1.3
2015-Aug-25 17:33N 33°34' W 118°07'0 0.0
2015-Aug-25 16:33N 33°34' W 118°07'1 1.2
2015-Aug-25 15:32N 33°35' W 118°07'10 9.7
2015-Aug-25 14:32N 33°42' W 118°15'2 2.2
2015-Aug-25 13:33N 33°44' W 118°16'0 0.0
2015-Aug-25 12:32N 33°44' W 118°16'0 0.0
2015-Aug-25 11:32N 33°44' W 118°16'0 0.0
2015-Aug-25 10:32N 33°44' W 118°16'0 0.0
2015-Aug-25 07:32N 33°44' W 118°16'0 0.0
2015-Aug-25 06:32N 33°44' W 118°16'0 0.0
2015-Aug-25 03:32N 33°44' W 118°16'0 0.0
2015-Aug-25 02:32N 33°44' W 118°16'0 0.0
2015-Aug-25 01:32N 33°44' W 118°16'0 0.0
2015-Aug-25 00:32N 33°44' W 118°16'3 2.6
2015-Aug-24 23:34N 33°42' W 118°14'10 9.2
2015-Aug-24 22:27N 33°34' W 118°07'1 1.4
2015-Aug-24 21:33N 33°35' W 118°08'0 0.1
2015-Aug-24 20:33N 33°35' W 118°08'0 0.0
2015-Aug-24 19:32N 33°35' W 118°08'0 0.0
2015-Aug-24 18:33N 33°35' W 118°08'0 0.0
2015-Aug-24 17:33N 33°35' W 118°08'3 2.4
2015-Aug-24 16:32N 33°37' W 118°09'9 9.2
2015-Aug-24 15:34N 33°44' W 118°16'0 0.0
2015-Aug-24 14:34N 33°44' W 118°16'0 0.0
2015-Aug-24 13:34N 33°44' W 118°16'0 0.3
2015-Aug-24 12:20N 33°44' W 118°16'0 0.0
2015-Aug-24 02:12N 33°44' W 118°16'0 0.0
2015-Aug-24 01:30N 33°44' W 118°16'0 0.0
2015-Aug-24 00:27N 33°44' W 118°16'0 0.0
2015-Aug-23 23:30N 33°44' W 118°16'0 0.0
2015-Aug-22 09:30N 33°44' W 118°16'0 0.0
2015-Aug-21 22:18N 33°44' W 118°16'0 0.0
2015-Aug-21 21:33N 33°44' W 118°16'12 3.4
2015-Aug-21 18:08N 33°35' W 118°08'0 0.0
2015-Aug-21 17:29N 33°35' W 118°08'0 0.0
2015-Aug-21 16:29N 33°35' W 118°08'12 0.6
2015-Aug-20 22:15N 33°44' W 118°16'0 0.0
2015-Aug-20 21:32N 33°44' W 118°16'0 0.0
2015-Aug-20 20:25N 33°44' W 118°16'2 1.7
2015-Aug-20 19:30N 33°43' W 118°15'11 5.5
2015-Aug-20 17:33N 33°34' W 118°07'1 0.7
2015-Aug-20 16:30N 33°34' W 118°07'13 5.5
2015-Aug-20 14:11N 33°44' W 118°16'0 0.3
2015-Aug-20 13:03N 33°44' W 118°16'0 0.0
2015-Aug-20 00:30N 33°44' W 118°16'0 0.0
2015-Aug-19 23:30N 33°44' W 118°16'0 0.0
2015-Aug-19 22:31N 33°44' W 118°16'0 0.0
2015-Aug-19 21:28N 33°44' W 118°16'1 0.8
2015-Aug-19 20:23N 33°43' W 118°16'11 3.3
2015-Aug-19 17:07N 33°35' W 118°08'0 0.2
2015-Aug-19 15:33N 33°35' W 118°08'9 9.2
2015-Aug-19 14:32N 33°43' W 118°15'2 0.9
2015-Aug-19 12:20N 33°44' W 118°16'0 0.0
2015-Aug-19 10:31N 33°44' W 118°16'0 0.0
2015-Aug-19 09:16N 33°44' W 118°16'0 0.0
2015-Aug-19 08:24N 33°44' W 118°16'0 0.0
2015-Aug-19 07:33N 33°44' W 118°16'0 0.0
2015-Aug-19 06:33N 33°44' W 118°16'0 0.0
2015-Aug-19 05:33N 33°44' W 118°16'0 0.0
2015-Aug-19 04:31N 33°44' W 118°16'0 0.0
2015-Aug-19 03:33N 33°44' W 118°16'0 0.0
2015-Aug-19 02:33N 33°44' W 118°16'0 0.0
2015-Aug-19 01:33N 33°44' W 118°16'0 0.0
2015-Aug-19 00:33N 33°44' W 118°16'0 0.0
2015-Aug-18 23:33N 33°44' W 118°16'  
Track history (hours):
 
Tides and Currents Weather Stations Pressure Air Temp Water Temp Dewpoint Dewpoint Depression Visibility Wind Speed Wind Dir Waves Ship Positions

Kenneth Carl

Owner: So. Cal. Ship Services, Inc., San Pedro, CA. More information available from US FCC via Universal Licensing System and Coast Guard Vessel Documentation Center.

Last reported at 2015-Aug-28 23:32 UTC. Time now 2015-Aug-29 00:22 UTC.
Position N 33°43' W 118°16'.

Length 31 m; draft 3 m.

Type: Ship. MMSI: 367492920.

Date/timePositionNaut miles runAvg speedWind from/ knotsBaromVisibWave heightAir tempDewpointWater temp
2015-Aug-28 23:32N 33°43' W 118°16'10 9.8
2015-Aug-28 22:29N 33°35' W 118°08'2 1.8
2015-Aug-28 21:33N 33°34' W 118°07'1 0.9
2015-Aug-28 20:33N 33°35' W 118°08'1 0.9
2015-Aug-28 19:30N 33°34' W 118°07'1 1.3
2015-Aug-28 18:30N 33°35' W 118°08'1 1.3
2015-Aug-28 17:33N 33°34' W 118°07'1 1.3
2015-Aug-28 16:33N 33°35' W 118°08'1 0.9
2015-Aug-28 15:10N 33°34' W 118°07'2 3.5
2015-Aug-28 14:28N 33°36' W 118°08'8 9.2
2015-Aug-28 13:33N 33°42' W 118°15'2 0.4
2015-Aug-28 08:12N 33°44' W 118°16'0 0.0
2015-Aug-28 07:15N 33°44' W 118°16'0 0.0
2015-Aug-28 04:30N 33°44' W 118°16'0 0.0
2015-Aug-28 03:15N 33°44' W 118°16'0 0.0
2015-Aug-28 01:24N 33°44' W 118°16'0 0.0
2015-Aug-28 00:18N 33°44' W 118°16'0 0.0
2015-Aug-27 23:33N 33°44' W 118°16'3 2.9
2015-Aug-27 22:33N 33°42' W 118°14'9 8.7
2015-Aug-27 21:33N 33°35' W 118°08'0 0.1
2015-Aug-27 20:33N 33°35' W 118°08'0 0.0
2015-Aug-27 19:33N 33°35' W 118°08'0 0.0
2015-Aug-27 18:33N 33°35' W 118°08'0 0.0
2015-Aug-27 17:33N 33°35' W 118°08'0 0.1
2015-Aug-27 16:33N 33°35' W 118°08'1 1.2
2015-Aug-27 15:33N 33°34' W 118°07'9 8.8
2015-Aug-27 14:33N 33°41' W 118°13'4 3.9
2015-Aug-27 13:32N 33°44' W 118°16'0 0.0
2015-Aug-27 12:31N 33°44' W 118°16'0 0.0
2015-Aug-27 11:33N 33°44' W 118°16'0 0.0
2015-Aug-27 10:33N 33°44' W 118°16'0 0.0
2015-Aug-27 09:33N 33°44' W 118°16'0 0.0
2015-Aug-27 08:33N 33°44' W 118°16'0 0.0
2015-Aug-27 07:33N 33°44' W 118°16'0 0.0
2015-Aug-27 06:33N 33°44' W 118°16'0 0.0
2015-Aug-27 05:33N 33°44' W 118°16'0 0.0
2015-Aug-27 04:33N 33°44' W 118°16'0 0.0
2015-Aug-27 03:25N 33°44' W 118°16'0 0.0
2015-Aug-27 02:33N 33°44' W 118°16'0 0.0
2015-Aug-27 01:28N 33°44' W 118°16'0 0.0
2015-Aug-27 00:33N 33°44' W 118°16'2 2.1
2015-Aug-26 23:33N 33°42' W 118°15'9 9.5
2015-Aug-26 22:33N 33°35' W 118°08'0 0.1
2015-Aug-26 21:33N 33°35' W 118°08'0 0.0
2015-Aug-26 20:33N 33°35' W 118°08'0 0.0
2015-Aug-26 19:33N 33°35' W 118°08'0 0.0
2015-Aug-26 18:33N 33°35' W 118°08'0 0.0
2015-Aug-26 17:33N 33°35' W 118°08'0 0.0
2015-Aug-26 16:33N 33°35' W 118°08'1 1.3
2015-Aug-26 15:33N 33°34' W 118°07'7 6.6
2015-Aug-26 14:33N 33°39' W 118°12'6 6.2
2015-Aug-26 13:33N 33°44' W 118°16'0 0.0
2015-Aug-26 12:33N 33°44' W 118°16'0 0.0
2015-Aug-26 11:33N 33°44' W 118°16'0 0.0
2015-Aug-26 10:33N 33°44' W 118°16'0 0.0
2015-Aug-26 09:33N 33°44' W 118°16'0 0.0
2015-Aug-26 08:33N 33°44' W 118°16'0 0.0
2015-Aug-26 07:33N 33°44' W 118°16'0 0.0
2015-Aug-26 06:33N 33°44' W 118°16'0 0.0
2015-Aug-26 05:30N 33°44' W 118°16'0 0.0
2015-Aug-26 04:32N 33°44' W 118°16'0 0.0
2015-Aug-26 03:33N 33°44' W 118°16'0 0.0
2015-Aug-26 02:33N 33°44' W 118°16'0 0.0
2015-Aug-26 01:33N 33°44' W 118°16'0 0.0
2015-Aug-26 00:33N 33°44' W 118°16'0 0.0
2015-Aug-25 23:33N 33°44' W 118°16'0 0.0
2015-Aug-25 22:33N 33°44' W 118°16'0 0.4
2015-Aug-25 21:33N 33°44' W 118°16'0 0.0
2015-Aug-25 20:33N 33°44' W 118°16'11 7.3
2015-Aug-25 19:06N 33°36' W 118°08'1 1.4
2015-Aug-25 18:33N 33°35' W 118°08'1 1.3
2015-Aug-25 17:33N 33°34' W 118°07'0 0.0
2015-Aug-25 16:33N 33°34' W 118°07'1 1.2
2015-Aug-25 15:32N 33°35' W 118°07'10 9.7
2015-Aug-25 14:32N 33°42' W 118°15'2 2.2
2015-Aug-25 13:33N 33°44' W 118°16'0 0.0
2015-Aug-25 12:32N 33°44' W 118°16'0 0.0
2015-Aug-25 11:32N 33°44' W 118°16'0 0.0
2015-Aug-25 10:32N 33°44' W 118°16'0 0.0
2015-Aug-25 07:32N 33°44' W 118°16'0 0.0
2015-Aug-25 06:32N 33°44' W 118°16'0 0.0
2015-Aug-25 03:32N 33°44' W 118°16'0 0.0
2015-Aug-25 02:32N 33°44' W 118°16'0 0.0
2015-Aug-25 01:32N 33°44' W 118°16'0 0.0
2015-Aug-25 00:32N 33°44' W 118°16'3 2.6
2015-Aug-24 23:34N 33°42' W 118°14'10 9.2
2015-Aug-24 22:27N 33°34' W 118°07'1 1.4
2015-Aug-24 21:33N 33°35' W 118°08'0 0.1
2015-Aug-24 20:33N 33°35' W 118°08'0 0.0
2015-Aug-24 19:32N 33°35' W 118°08'0 0.0
2015-Aug-24 18:33N 33°35' W 118°08'0 0.0
2015-Aug-24 17:33N 33°35' W 118°08'3 2.4
2015-Aug-24 16:32N 33°37' W 118°09'9 9.2
2015-Aug-24 15:34N 33°44' W 118°16'0 0.0
2015-Aug-24 14:34N 33°44' W 118°16'0 0.0
2015-Aug-24 13:34N 33°44' W 118°16'0 0.3
2015-Aug-24 12:20N 33°44' W 118°16'0 0.0
2015-Aug-24 02:12N 33°44' W 118°16'0 0.0
2015-Aug-24 01:30N 33°44' W 118°16'0 0.0
2015-Aug-24 00:27N 33°44' W 118°16'0 0.0
2015-Aug-23 23:30N 33°44' W 118°16'0 0.0
2015-Aug-22 09:30N 33°44' W 118°16'0 0.0
2015-Aug-21 22:18N 33°44' W 118°16'0 0.0
2015-Aug-21 21:33N 33°44' W 118°16'12 3.4
2015-Aug-21 18:08N 33°35' W 118°08'0 0.0
2015-Aug-21 17:29N 33°35' W 118°08'0 0.0
2015-Aug-21 16:29N 33°35' W 118°08'12 0.6
2015-Aug-20 22:15N 33°44' W 118°16'0 0.0
2015-Aug-20 21:32N 33°44' W 118°16'0 0.0
2015-Aug-20 20:25N 33°44' W 118°16'2 1.7
2015-Aug-20 19:30N 33°43' W 118°15'11 5.5
2015-Aug-20 17:33N 33°34' W 118°07'1 0.7
2015-Aug-20 16:30N 33°34' W 118°07'13 5.5
2015-Aug-20 14:11N 33°44' W 118°16'0 0.3
2015-Aug-20 13:03N 33°44' W 118°16'0 0.0
2015-Aug-20 00:30N 33°44' W 118°16'0 0.0
2015-Aug-19 23:30N 33°44' W 118°16'0 0.0
2015-Aug-19 22:31N 33°44' W 118°16'0 0.0
2015-Aug-19 21:28N 33°44' W 118°16'1 0.8
2015-Aug-19 20:23N 33°43' W 118°16'11 3.3
2015-Aug-19 17:07N 33°35' W 118°08'0 0.2
2015-Aug-19 15:33N 33°35' W 118°08'9 9.2
2015-Aug-19 14:32N 33°43' W 118°15'2 0.9
2015-Aug-19 12:20N 33°44' W 118°16'0 0.0
2015-Aug-19 10:31N 33°44' W 118°16'0 0.0
2015-Aug-19 09:16N 33°44' W 118°16'0 0.0
2015-Aug-19 08:24N 33°44' W 118°16'0 0.0
2015-Aug-19 07:33N 33°44' W 118°16'0 0.0
2015-Aug-19 06:33N 33°44' W 118°16'0 0.0
2015-Aug-19 05:33N 33°44' W 118°16'0 0.0
2015-Aug-19 04:31N 33°44' W 118°16'0 0.0
2015-Aug-19 03:33N 33°44' W 118°16'0 0.0
2015-Aug-19 02:33N 33°44' W 118°16'0 0.0
2015-Aug-19 01:33N 33°44' W 118°16'0 0.0
2015-Aug-19 00:33N 33°44' W 118°16'0 0.0
2015-Aug-18 23:33N 33°44' W 118°16'  

Dump ship's entire track history